sensor_id;sensor_type;location;lat;lon;timestamp;P1;durP1;ratioP1;P2;durP2;ratioP2
40204;SDS011;26963;42.666;23.366;2023-11-21T00:02:20;17.10;;;9.38;;
40204;SDS011;26963;42.666;23.366;2023-11-21T00:04:47;16.30;;;10.05;;
40204;SDS011;26963;42.666;23.366;2023-11-21T00:07:13;16.08;;;10.02;;
40204;SDS011;26963;42.666;23.366;2023-11-21T00:09:40;12.93;;;8.73;;
40204;SDS011;26963;42.666;23.366;2023-11-21T00:12:06;15.35;;;9.05;;
40204;SDS011;26963;42.666;23.366;2023-11-21T00:14:38;15.00;;;8.65;;
40204;SDS011;26963;42.666;23.366;2023-11-21T00:17:04;13.68;;;8.15;;
40204;SDS011;26963;42.666;23.366;2023-11-21T00:19:30;12.02;;;7.35;;
40204;SDS011;26963;42.666;23.366;2023-11-21T00:21:56;14.00;;;8.57;;
40204;SDS011;26963;42.666;23.366;2023-11-21T00:24:23;11.68;;;7.55;;
40204;SDS011;26963;42.666;23.366;2023-11-21T00:26:50;10.25;;;7.35;;
40204;SDS011;26963;42.666;23.366;2023-11-21T00:29:16;13.85;;;8.60;;
40204;SDS011;26963;42.666;23.366;2023-11-21T00:31:43;12.85;;;7.55;;
40204;SDS011;26963;42.666;23.366;2023-11-21T00:34:11;11.40;;;6.10;;
40204;SDS011;26963;42.666;23.366;2023-11-21T00:36:37;10.50;;;5.40;;
40204;SDS011;26963;42.666;23.366;2023-11-21T00:39:03;7.75;;;5.47;;
40204;SDS011;26963;42.666;23.366;2023-11-21T00:41:31;9.50;;;5.35;;
40204;SDS011;26963;42.666;23.366;2023-11-21T00:43:56;8.98;;;6.00;;
40204;SDS011;26963;42.666;23.366;2023-11-21T00:46:22;10.82;;;6.70;;
40204;SDS011;26963;42.666;23.366;2023-11-21T00:48:52;11.75;;;7.13;;
40204;SDS011;26963;42.666;23.366;2023-11-21T00:51:19;13.88;;;7.40;;
40204;SDS011;26963;42.666;23.366;2023-11-21T00:53:45;11.45;;;7.32;;
40204;SDS011;26963;42.666;23.366;2023-11-21T00:56:11;11.70;;;7.45;;
40204;SDS011;26963;42.666;23.366;2023-11-21T00:58:38;13.45;;;7.85;;
40204;SDS011;26963;42.666;23.366;2023-11-21T01:01:07;11.15;;;7.53;;
40204;SDS011;26963;42.666;23.366;2023-11-21T01:03:33;13.45;;;7.40;;
40204;SDS011;26963;42.666;23.366;2023-11-21T01:05:59;11.50;;;6.70;;
40204;SDS011;26963;42.666;23.366;2023-11-21T01:08:24;12.02;;;7.80;;
40204;SDS011;26963;42.666;23.366;2023-11-21T01:10:50;12.23;;;7.93;;
40204;SDS011;26963;42.666;23.366;2023-11-21T01:13:15;11.90;;;7.70;;
40204;SDS011;26963;42.666;23.366;2023-11-21T01:15:41;17.75;;;12.45;;
40204;SDS011;26963;42.666;23.366;2023-11-21T01:18:07;14.82;;;8.18;;
40204;SDS011;26963;42.666;23.366;2023-11-21T01:20:36;14.30;;;10.27;;
40204;SDS011;26963;42.666;23.366;2023-11-21T01:23:02;14.25;;;8.88;;
40204;SDS011;26963;42.666;23.366;2023-11-21T01:25:28;18.55;;;9.57;;
40204;SDS011;26963;42.666;23.366;2023-11-21T01:27:53;12.32;;;8.48;;
40204;SDS011;26963;42.666;23.366;2023-11-21T01:30:19;13.20;;;8.35;;
40204;SDS011;26963;42.666;23.366;2023-11-21T01:32:47;13.35;;;8.82;;
40204;SDS011;26963;42.666;23.366;2023-11-21T01:35:12;14.68;;;10.23;;
40204;SDS011;26963;42.666;23.366;2023-11-21T01:37:41;27.63;;;16.75;;
40204;SDS011;26963;42.666;23.366;2023-11-21T01:40:07;23.05;;;14.60;;
40204;SDS011;26963;42.666;23.366;2023-11-21T01:42:36;31.27;;;19.02;;
40204;SDS011;26963;42.666;23.366;2023-11-21T01:45:02;28.85;;;16.30;;
40204;SDS011;26963;42.666;23.366;2023-11-21T01:47:32;26.98;;;16.73;;
40204;SDS011;26963;42.666;23.366;2023-11-21T01:49:59;27.45;;;17.35;;
40204;SDS011;26963;42.666;23.366;2023-11-21T01:52:25;13.90;;;9.30;;
40204;SDS011;26963;42.666;23.366;2023-11-21T01:54:51;17.20;;;10.82;;
40204;SDS011;26963;42.666;23.366;2023-11-21T01:57:18;24.48;;;16.40;;
40204;SDS011;26963;42.666;23.366;2023-11-21T01:59:45;35.47;;;20.52;;
40204;SDS011;26963;42.666;23.366;2023-11-21T02:02:13;51.80;;;30.50;;
40204;SDS011;26963;42.666;23.366;2023-11-21T02:04:39;39.75;;;24.27;;
40204;SDS011;26963;42.666;23.366;2023-11-21T02:07:05;49.55;;;28.95;;
40204;SDS011;26963;42.666;23.366;2023-11-21T02:09:30;47.25;;;29.77;;
40204;SDS011;26963;42.666;23.366;2023-11-21T02:11:56;45.47;;;30.85;;
40204;SDS011;26963;42.666;23.366;2023-11-21T02:14:24;41.75;;;24.77;;
40204;SDS011;26963;42.666;23.366;2023-11-21T02:16:54;28.65;;;17.13;;
40204;SDS011;26963;42.666;23.366;2023-11-21T02:19:21;23.88;;;14.88;;
40204;SDS011;26963;42.666;23.366;2023-11-21T02:21:54;30.90;;;19.10;;
40204;SDS011;26963;42.666;23.366;2023-11-21T02:24:24;30.75;;;18.33;;
40204;SDS011;26963;42.666;23.366;2023-11-21T02:26:50;44.63;;;33.50;;
40204;SDS011;26963;42.666;23.366;2023-11-21T02:29:17;64.63;;;51.22;;
40204;SDS011;26963;42.666;23.366;2023-11-21T02:31:47;60.95;;;46.55;;
40204;SDS011;26963;42.666;23.366;2023-11-21T02:34:16;62.17;;;46.45;;
40204;SDS011;26963;42.666;23.366;2023-11-21T02:36:46;69.85;;;59.92;;
40204;SDS011;26963;42.666;23.366;2023-11-21T02:39:14;59.30;;;40.67;;
40204;SDS011;26963;42.666;23.366;2023-11-21T02:41:42;54.22;;;47.60;;
40204;SDS011;26963;42.666;23.366;2023-11-21T02:44:08;47.00;;;38.92;;
40204;SDS011;26963;42.666;23.366;2023-11-21T02:46:35;42.40;;;34.25;;
40204;SDS011;26963;42.666;23.366;2023-11-21T02:49:02;43.65;;;35.78;;
40204;SDS011;26963;42.666;23.366;2023-11-21T02:51:29;41.42;;;31.05;;
40204;SDS011;26963;42.666;23.366;2023-11-21T02:53:57;36.83;;;29.23;;
40204;SDS011;26963;42.666;23.366;2023-11-21T02:56:28;29.30;;;22.38;;
40204;SDS011;26963;42.666;23.366;2023-11-21T02:58:57;31.00;;;24.27;;
40204;SDS011;26963;42.666;23.366;2023-11-21T03:01:23;28.45;;;20.65;;
40204;SDS011;26963;42.666;23.366;2023-11-21T03:03:52;26.77;;;19.20;;
40204;SDS011;26963;42.666;23.366;2023-11-21T03:06:18;28.63;;;18.98;;
40204;SDS011;26963;42.666;23.366;2023-11-21T03:08:47;28.33;;;18.35;;
40204;SDS011;26963;42.666;23.366;2023-11-21T03:11:13;25.38;;;17.25;;
40204;SDS011;26963;42.666;23.366;2023-11-21T03:13:39;21.58;;;16.20;;
40204;SDS011;26963;42.666;23.366;2023-11-21T03:16:08;20.48;;;13.95;;
40204;SDS011;26963;42.666;23.366;2023-11-21T03:18:40;24.35;;;16.35;;
40204;SDS011;26963;42.666;23.366;2023-11-21T03:21:06;20.60;;;14.60;;
40204;SDS011;26963;42.666;23.366;2023-11-21T03:23:36;24.38;;;14.43;;
40204;SDS011;26963;42.666;23.366;2023-11-21T03:26:02;26.08;;;15.32;;
40204;SDS011;26963;42.666;23.366;2023-11-21T03:28:28;28.10;;;17.33;;
40204;SDS011;26963;42.666;23.366;2023-11-21T03:30:55;25.23;;;16.08;;
40204;SDS011;26963;42.666;23.366;2023-11-21T03:33:21;26.88;;;16.38;;
40204;SDS011;26963;42.666;23.366;2023-11-21T03:35:47;20.80;;;15.88;;
40204;SDS011;26963;42.666;23.366;2023-11-21T03:38:16;25.20;;;18.58;;
40204;SDS011;26963;42.666;23.366;2023-11-21T03:40:42;24.92;;;19.13;;
40204;SDS011;26963;42.666;23.366;2023-11-21T03:43:07;24.65;;;18.52;;
40204;SDS011;26963;42.666;23.366;2023-11-21T03:45:33;27.02;;;17.55;;
40204;SDS011;26963;42.666;23.366;2023-11-21T03:47:58;30.92;;;21.42;;
40204;SDS011;26963;42.666;23.366;2023-11-21T03:50:27;33.60;;;23.17;;
40204;SDS011;26963;42.666;23.366;2023-11-21T03:52:56;31.20;;;19.77;;
40204;SDS011;26963;42.666;23.366;2023-11-21T03:55:21;32.05;;;20.65;;
40204;SDS011;26963;42.666;23.366;2023-11-21T03:57:52;36.00;;;22.15;;
40204;SDS011;26963;42.666;23.366;2023-11-21T04:00:17;35.33;;;21.42;;
40204;SDS011;26963;42.666;23.366;2023-11-21T04:02:45;29.27;;;20.92;;
40204;SDS011;26963;42.666;23.366;2023-11-21T04:05:11;26.88;;;18.52;;
40204;SDS011;26963;42.666;23.366;2023-11-21T04:07:37;26.70;;;18.23;;
40204;SDS011;26963;42.666;23.366;2023-11-21T04:10:04;24.70;;;17.65;;
40204;SDS011;26963;42.666;23.366;2023-11-21T04:12:36;27.70;;;19.42;;
40204;SDS011;26963;42.666;23.366;2023-11-21T04:15:02;31.17;;;20.13;;
40204;SDS011;26963;42.666;23.366;2023-11-21T04:17:28;30.95;;;20.20;;
40204;SDS011;26963;42.666;23.366;2023-11-21T04:19:54;30.55;;;19.65;;
40204;SDS011;26963;42.666;23.366;2023-11-21T04:22:20;22.23;;;15.15;;
40204;SDS011;26963;42.666;23.366;2023-11-21T04:24:45;30.50;;;18.00;;
40204;SDS011;26963;42.666;23.366;2023-11-21T04:27:11;24.50;;;18.23;;
40204;SDS011;26963;42.666;23.366;2023-11-21T04:29:38;25.88;;;17.83;;
40204;SDS011;26963;42.666;23.366;2023-11-21T04:32:03;22.90;;;15.05;;
40204;SDS011;26963;42.666;23.366;2023-11-21T04:34:30;26.33;;;17.08;;
40204;SDS011;26963;42.666;23.366;2023-11-21T04:36:56;25.92;;;15.82;;
40204;SDS011;26963;42.666;23.366;2023-11-21T04:39:22;25.77;;;16.98;;
40204;SDS011;26963;42.666;23.366;2023-11-21T04:41:48;26.42;;;17.27;;
40204;SDS011;26963;42.666;23.366;2023-11-21T04:44:14;17.00;;;11.77;;
40204;SDS011;26963;42.666;23.366;2023-11-21T04:46:41;17.40;;;10.32;;
40204;SDS011;26963;42.666;23.366;2023-11-21T04:49:07;17.77;;;11.75;;
40204;SDS011;26963;42.666;23.366;2023-11-21T04:51:32;13.57;;;10.23;;
40204;SDS011;26963;42.666;23.366;2023-11-21T04:53:58;16.33;;;10.50;;
40204;SDS011;26963;42.666;23.366;2023-11-21T04:56:23;17.02;;;12.05;;
40204;SDS011;26963;42.666;23.366;2023-11-21T04:58:49;18.80;;;12.68;;
40204;SDS011;26963;42.666;23.366;2023-11-21T05:01:15;16.25;;;10.77;;
40204;SDS011;26963;42.666;23.366;2023-11-21T05:03:41;18.58;;;12.85;;
40204;SDS011;26963;42.666;23.366;2023-11-21T05:06:09;20.45;;;13.15;;
40204;SDS011;26963;42.666;23.366;2023-11-21T05:08:35;18.92;;;11.30;;
40204;SDS011;26963;42.666;23.366;2023-11-21T05:11:02;22.13;;;13.77;;
40204;SDS011;26963;42.666;23.366;2023-11-21T05:13:28;16.05;;;11.38;;
40204;SDS011;26963;42.666;23.366;2023-11-21T05:15:56;20.73;;;12.50;;
40204;SDS011;26963;42.666;23.366;2023-11-21T05:18:22;22.02;;;14.05;;
40204;SDS011;26963;42.666;23.366;2023-11-21T05:20:48;19.02;;;12.85;;
40204;SDS011;26963;42.666;23.366;2023-11-21T05:23:14;21.33;;;13.13;;
40204;SDS011;26963;42.666;23.366;2023-11-21T05:25:39;20.17;;;12.88;;
40204;SDS011;26963;42.666;23.366;2023-11-21T05:28:06;18.85;;;12.30;;
40204;SDS011;26963;42.666;23.366;2023-11-21T05:30:32;24.40;;;13.60;;
40204;SDS011;26963;42.666;23.366;2023-11-21T05:32:57;21.88;;;13.48;;
40204;SDS011;26963;42.666;23.366;2023-11-21T05:35:23;22.02;;;13.77;;
40204;SDS011;26963;42.666;23.366;2023-11-21T05:37:52;26.10;;;15.20;;
40204;SDS011;26963;42.666;23.366;2023-11-21T05:40:17;33.38;;;20.15;;
40204;SDS011;26963;42.666;23.366;2023-11-21T05:42:45;27.77;;;18.90;;
40204;SDS011;26963;42.666;23.366;2023-11-21T05:45:11;24.65;;;16.95;;
40204;SDS011;26963;42.666;23.366;2023-11-21T05:47:40;29.02;;;15.70;;
40204;SDS011;26963;42.666;23.366;2023-11-21T05:50:10;25.85;;;16.85;;
40204;SDS011;26963;42.666;23.366;2023-11-21T05:52:39;25.20;;;16.00;;
40204;SDS011;26963;42.666;23.366;2023-11-21T05:55:06;29.75;;;15.90;;
40204;SDS011;26963;42.666;23.366;2023-11-21T05:57:33;26.38;;;15.07;;
40204;SDS011;26963;42.666;23.366;2023-11-21T06:00:02;26.05;;;15.10;;
40204;SDS011;26963;42.666;23.366;2023-11-21T06:02:38;28.13;;;16.48;;
40204;SDS011;26963;42.666;23.366;2023-11-21T06:05:05;29.90;;;17.40;;
40204;SDS011;26963;42.666;23.366;2023-11-21T06:07:32;28.02;;;16.63;;
40204;SDS011;26963;42.666;23.366;2023-11-21T06:09:57;27.67;;;18.05;;
40204;SDS011;26963;42.666;23.366;2023-11-21T06:12:23;28.83;;;18.00;;
40204;SDS011;26963;42.666;23.366;2023-11-21T06:14:48;32.72;;;19.48;;
40204;SDS011;26963;42.666;23.366;2023-11-21T06:17:17;31.20;;;19.73;;
40204;SDS011;26963;42.666;23.366;2023-11-21T06:19:43;38.97;;;20.42;;
40204;SDS011;26963;42.666;23.366;2023-11-21T06:22:11;32.67;;;19.25;;
40204;SDS011;26963;42.666;23.366;2023-11-21T06:24:36;19.55;;;13.82;;
40204;SDS011;26963;42.666;23.366;2023-11-21T06:27:05;32.45;;;17.25;;
40204;SDS011;26963;42.666;23.366;2023-11-21T06:29:31;24.70;;;16.48;;
40204;SDS011;26963;42.666;23.366;2023-11-21T06:31:57;30.13;;;18.02;;
40204;SDS011;26963;42.666;23.366;2023-11-21T06:34:23;33.95;;;19.33;;
40204;SDS011;26963;42.666;23.366;2023-11-21T06:36:52;28.60;;;17.50;;
40204;SDS011;26963;42.666;23.366;2023-11-21T06:39:17;28.20;;;17.92;;
40204;SDS011;26963;42.666;23.366;2023-11-21T06:41:43;29.38;;;17.52;;
40204;SDS011;26963;42.666;23.366;2023-11-21T06:44:08;29.83;;;16.85;;
40204;SDS011;26963;42.666;23.366;2023-11-21T06:46:34;23.38;;;15.50;;
40204;SDS011;26963;42.666;23.366;2023-11-21T06:49:00;23.55;;;14.65;;
40204;SDS011;26963;42.666;23.366;2023-11-21T06:51:25;23.50;;;14.88;;
40204;SDS011;26963;42.666;23.366;2023-11-21T06:53:51;21.92;;;13.05;;
40204;SDS011;26963;42.666;23.366;2023-11-21T06:56:19;19.70;;;13.85;;
40204;SDS011;26963;42.666;23.366;2023-11-21T06:58:45;19.90;;;13.52;;
40204;SDS011;26963;42.666;23.366;2023-11-21T07:01:12;22.60;;;13.27;;
40204;SDS011;26963;42.666;23.366;2023-11-21T07:03:41;21.58;;;12.65;;
40204;SDS011;26963;42.666;23.366;2023-11-21T07:06:07;17.92;;;11.90;;
40204;SDS011;26963;42.666;23.366;2023-11-21T07:08:33;18.42;;;11.93;;
40204;SDS011;26963;42.666;23.366;2023-11-21T07:10:59;18.88;;;12.95;;
40204;SDS011;26963;42.666;23.366;2023-11-21T07:13:24;20.05;;;12.77;;
40204;SDS011;26963;42.666;23.366;2023-11-21T07:15:51;20.40;;;12.43;;
40204;SDS011;26963;42.666;23.366;2023-11-21T07:18:17;22.00;;;12.65;;
40204;SDS011;26963;42.666;23.366;2023-11-21T07:20:43;19.38;;;14.07;;
40204;SDS011;26963;42.666;23.366;2023-11-21T07:23:09;20.60;;;14.35;;
40204;SDS011;26963;42.666;23.366;2023-11-21T07:25:35;21.95;;;13.20;;
40204;SDS011;26963;42.666;23.366;2023-11-21T07:28:01;22.33;;;13.15;;
40204;SDS011;26963;42.666;23.366;2023-11-21T07:30:26;24.35;;;14.00;;
40204;SDS011;26963;42.666;23.366;2023-11-21T07:32:53;22.23;;;13.70;;
40204;SDS011;26963;42.666;23.366;2023-11-21T07:35:18;23.98;;;14.88;;
40204;SDS011;26963;42.666;23.366;2023-11-21T07:37:47;22.20;;;13.90;;
40204;SDS011;26963;42.666;23.366;2023-11-21T07:40:14;22.17;;;13.98;;
40204;SDS011;26963;42.666;23.366;2023-11-21T07:42:40;19.65;;;13.88;;
40204;SDS011;26963;42.666;23.366;2023-11-21T07:45:08;21.60;;;14.00;;
40204;SDS011;26963;42.666;23.366;2023-11-21T07:47:33;20.73;;;14.15;;
40204;SDS011;26963;42.666;23.366;2023-11-21T07:50:00;24.73;;;14.23;;
40204;SDS011;26963;42.666;23.366;2023-11-21T07:52:28;19.48;;;13.73;;
40204;SDS011;26963;42.666;23.366;2023-11-21T07:54:53;26.08;;;14.10;;
40204;SDS011;26963;42.666;23.366;2023-11-21T07:57:22;19.75;;;14.50;;
40204;SDS011;26963;42.666;23.366;2023-11-21T07:59:48;22.05;;;14.05;;
40204;SDS011;26963;42.666;23.366;2023-11-21T08:02:13;21.67;;;14.90;;
40204;SDS011;26963;42.666;23.366;2023-11-21T08:04:41;24.08;;;14.77;;
40204;SDS011;26963;42.666;23.366;2023-11-21T08:07:07;23.80;;;14.85;;
40204;SDS011;26963;42.666;23.366;2023-11-21T08:09:32;25.13;;;15.05;;
40204;SDS011;26963;42.666;23.366;2023-11-21T08:11:59;23.33;;;14.38;;
40204;SDS011;26963;42.666;23.366;2023-11-21T08:14:27;25.88;;;14.35;;
40204;SDS011;26963;42.666;23.366;2023-11-21T08:16:53;21.73;;;13.20;;
40204;SDS011;26963;42.666;23.366;2023-11-21T08:19:25;24.05;;;13.93;;
40204;SDS011;26963;42.666;23.366;2023-11-21T08:21:51;23.67;;;13.90;;
40204;SDS011;26963;42.666;23.366;2023-11-21T08:24:19;29.95;;;14.63;;
40204;SDS011;26963;42.666;23.366;2023-11-21T08:26:46;19.92;;;14.35;;
40204;SDS011;26963;42.666;23.366;2023-11-21T08:29:11;26.13;;;14.25;;
40204;SDS011;26963;42.666;23.366;2023-11-21T08:31:37;24.67;;;14.60;;
40204;SDS011;26963;42.666;23.366;2023-11-21T08:34:03;24.80;;;14.65;;
40204;SDS011;26963;42.666;23.366;2023-11-21T08:36:29;26.15;;;13.95;;
40204;SDS011;26963;42.666;23.366;2023-11-21T08:38:56;27.40;;;14.07;;
40204;SDS011;26963;42.666;23.366;2023-11-21T08:41:22;24.67;;;14.77;;
40204;SDS011;26963;42.666;23.366;2023-11-21T08:43:48;22.25;;;14.02;;
40204;SDS011;26963;42.666;23.366;2023-11-21T08:46:15;23.05;;;14.00;;
40204;SDS011;26963;42.666;23.366;2023-11-21T08:48:43;21.70;;;13.85;;
40204;SDS011;26963;42.666;23.366;2023-11-21T08:51:09;27.63;;;14.55;;
40204;SDS011;26963;42.666;23.366;2023-11-21T08:53:36;31.45;;;17.63;;
40204;SDS011;26963;42.666;23.366;2023-11-21T08:56:03;27.98;;;16.95;;
40204;SDS011;26963;42.666;23.366;2023-11-21T08:58:30;27.50;;;19.25;;
40204;SDS011;26963;42.666;23.366;2023-11-21T09:00:57;32.95;;;21.75;;
40204;SDS011;26963;42.666;23.366;2023-11-21T09:03:23;33.80;;;23.00;;
40204;SDS011;26963;42.666;23.366;2023-11-21T09:05:48;36.67;;;23.67;;
40204;SDS011;26963;42.666;23.366;2023-11-21T09:08:17;36.72;;;23.83;;
40204;SDS011;26963;42.666;23.366;2023-11-21T09:10:42;33.75;;;24.33;;
40204;SDS011;26963;42.666;23.366;2023-11-21T09:13:12;42.08;;;26.58;;
40204;SDS011;26963;42.666;23.366;2023-11-21T09:15:38;38.20;;;26.77;;
40204;SDS011;26963;42.666;23.366;2023-11-21T09:18:05;42.90;;;23.45;;
40204;SDS011;26963;42.666;23.366;2023-11-21T09:20:30;30.85;;;21.85;;
40204;SDS011;26963;42.666;23.366;2023-11-21T09:22:56;32.45;;;19.85;;
40204;SDS011;26963;42.666;23.366;2023-11-21T09:25:22;25.80;;;17.25;;
40204;SDS011;26963;42.666;23.366;2023-11-21T09:27:47;24.88;;;17.35;;
40204;SDS011;26963;42.666;23.366;2023-11-21T09:30:13;27.80;;;17.13;;
40204;SDS011;26963;42.666;23.366;2023-11-21T09:32:41;28.83;;;18.10;;
40204;SDS011;26963;42.666;23.366;2023-11-21T09:35:10;25.63;;;18.25;;
40204;SDS011;26963;42.666;23.366;2023-11-21T09:37:36;26.27;;;18.25;;
40204;SDS011;26963;42.666;23.366;2023-11-21T09:40:03;27.73;;;17.77;;
40204;SDS011;26963;42.666;23.366;2023-11-21T09:42:32;26.17;;;17.75;;
40204;SDS011;26963;42.666;23.366;2023-11-21T09:47:59;27.67;;;18.40;;
40204;SDS011;26963;42.666;23.366;2023-11-21T09:50:25;22.05;;;16.15;;
40204;SDS011;26963;42.666;23.366;2023-11-21T09:53:00;23.83;;;15.60;;
40204;SDS011;26963;42.666;23.366;2023-11-21T09:55:50;23.73;;;16.23;;
40204;SDS011;26963;42.666;23.366;2023-11-21T09:58:18;24.98;;;15.77;;
40204;SDS011;26963;42.666;23.366;2023-11-21T10:00:47;28.42;;;16.70;;
40204;SDS011;26963;42.666;23.366;2023-11-21T10:03:13;24.10;;;17.15;;
40204;SDS011;26963;42.666;23.366;2023-11-21T10:05:42;23.92;;;16.80;;
40204;SDS011;26963;42.666;23.366;2023-11-21T10:08:10;26.42;;;17.05;;
40204;SDS011;26963;42.666;23.366;2023-11-21T10:10:37;28.63;;;16.80;;
40204;SDS011;26963;42.666;23.366;2023-11-21T10:13:04;24.17;;;17.00;;
40204;SDS011;26963;42.666;23.366;2023-11-21T10:15:33;23.67;;;16.60;;
40204;SDS011;26963;42.666;23.366;2023-11-21T10:18:01;22.92;;;14.98;;
40204;SDS011;26963;42.666;23.366;2023-11-21T10:20:29;23.58;;;15.35;;
40204;SDS011;26963;42.666;23.366;2023-11-21T10:22:56;24.48;;;15.10;;
40204;SDS011;26963;42.666;23.366;2023-11-21T10:25:22;24.90;;;16.30;;
40204;SDS011;26963;42.666;23.366;2023-11-21T10:27:48;24.92;;;17.30;;
40204;SDS011;26963;42.666;23.366;2023-11-21T10:30:22;24.88;;;17.13;;
40204;SDS011;26963;42.666;23.366;2023-11-21T10:32:54;25.65;;;17.15;;
40204;SDS011;26963;42.666;23.366;2023-11-21T10:35:24;24.90;;;16.80;;
40204;SDS011;26963;42.666;23.366;2023-11-21T10:38:03;25.20;;;17.38;;
40204;SDS011;26963;42.666;23.366;2023-11-21T10:40:29;20.48;;;14.52;;
40204;SDS011;26963;42.666;23.366;2023-11-21T10:42:54;25.90;;;15.18;;
40204;SDS011;26963;42.666;23.366;2023-11-21T10:45:30;24.80;;;13.38;;
40204;SDS011;26963;42.666;23.366;2023-11-21T10:47:56;19.08;;;12.95;;
40204;SDS011;26963;42.666;23.366;2023-11-21T10:50:21;22.58;;;13.10;;
40204;SDS011;26963;42.666;23.366;2023-11-21T10:52:49;21.17;;;12.75;;
40204;SDS011;26963;42.666;23.366;2023-11-21T10:55:18;21.17;;;12.80;;
40204;SDS011;26963;42.666;23.366;2023-11-21T10:57:50;17.15;;;13.15;;
40204;SDS011;26963;42.666;23.366;2023-11-21T11:02:48;19.00;;;11.88;;
40204;SDS011;26963;42.666;23.366;2023-11-21T11:05:23;19.27;;;12.75;;
40204;SDS011;26963;42.666;23.366;2023-11-21T11:08:31;19.65;;;13.73;;
40204;SDS011;26963;42.666;23.366;2023-11-21T11:10:44;18.25;;;11.77;;
40204;SDS011;26963;42.666;23.366;2023-11-21T11:13:13;16.73;;;11.77;;
40204;SDS011;26963;42.666;23.366;2023-11-21T11:15:40;17.48;;;11.77;;
40204;SDS011;26963;42.666;23.366;2023-11-21T11:18:06;22.65;;;12.85;;
40204;SDS011;26963;42.666;23.366;2023-11-21T11:20:35;20.50;;;11.90;;
40204;SDS011;26963;42.666;23.366;2023-11-21T11:28:22;19.17;;;11.52;;
40204;SDS011;26963;42.666;23.366;2023-11-21T11:31:02;15.73;;;10.90;;
40204;SDS011;26963;42.666;23.366;2023-11-21T11:36:29;18.27;;;10.95;;
40204;SDS011;26963;42.666;23.366;2023-11-21T11:39:02;18.67;;;11.55;;
40204;SDS011;26963;42.666;23.366;2023-11-21T11:41:31;21.02;;;12.20;;
40204;SDS011;26963;42.666;23.366;2023-11-21T11:44:02;16.70;;;12.30;;
40204;SDS011;26963;42.666;23.366;2023-11-21T11:46:47;18.42;;;12.75;;
40204;SDS011;26963;42.666;23.366;2023-11-21T11:49:28;18.75;;;13.07;;
40204;SDS011;26963;42.666;23.366;2023-11-21T11:54:58;21.08;;;13.45;;
40204;SDS011;26963;42.666;23.366;2023-11-21T11:57:24;17.33;;;12.02;;
40204;SDS011;26963;42.666;23.366;2023-11-21T12:02:52;20.63;;;13.95;;
40204;SDS011;26963;42.666;23.366;2023-11-21T12:05:27;21.50;;;14.55;;
40204;SDS011;26963;42.666;23.366;2023-11-21T12:07:56;23.48;;;15.80;;
40204;SDS011;26963;42.666;23.366;2023-11-21T12:10:40;24.38;;;16.05;;
40204;SDS011;26963;42.666;23.366;2023-11-21T12:13:08;29.65;;;17.58;;
40204;SDS011;26963;42.666;23.366;2023-11-21T12:15:38;26.02;;;17.08;;
40204;SDS011;26963;42.666;23.366;2023-11-21T12:18:05;28.23;;;17.75;;
40204;SDS011;26963;42.666;23.366;2023-11-21T12:20:32;28.15;;;18.10;;
40204;SDS011;26963;42.666;23.366;2023-11-21T12:23:03;28.33;;;17.17;;
40204;SDS011;26963;42.666;23.366;2023-11-21T12:25:30;34.13;;;19.25;;
40204;SDS011;26963;42.666;23.366;2023-11-21T12:27:58;28.48;;;19.02;;
40204;SDS011;26963;42.666;23.366;2023-11-21T12:30:26;35.85;;;22.55;;
40204;SDS011;26963;42.666;23.366;2023-11-21T12:32:55;35.50;;;21.95;;
40204;SDS011;26963;42.666;23.366;2023-11-21T12:35:22;36.88;;;24.50;;
40204;SDS011;26963;42.666;23.366;2023-11-21T12:37:53;33.75;;;23.02;;
40204;SDS011;26963;42.666;23.366;2023-11-21T12:40:22;35.47;;;24.08;;
40204;SDS011;26963;42.666;23.366;2023-11-21T12:42:49;32.47;;;23.23;;
40204;SDS011;26963;42.666;23.366;2023-11-21T12:47:49;33.53;;;22.60;;
40204;SDS011;26963;42.666;23.366;2023-11-21T12:50:22;33.50;;;22.30;;
40204;SDS011;26963;42.666;23.366;2023-11-21T12:52:53;32.03;;;21.80;;
40204;SDS011;26963;42.666;23.366;2023-11-21T12:55:23;33.05;;;22.23;;
40204;SDS011;26963;42.666;23.366;2023-11-21T12:57:54;31.60;;;22.73;;
40204;SDS011;26963;42.666;23.366;2023-11-21T13:00:27;39.00;;;23.67;;
40204;SDS011;26963;42.666;23.366;2023-11-21T13:02:57;38.60;;;23.70;;
40204;SDS011;26963;42.666;23.366;2023-11-21T13:05:41;33.88;;;25.08;;
40204;SDS011;26963;42.666;23.366;2023-11-21T13:08:09;35.33;;;24.00;;
40204;SDS011;26963;42.666;23.366;2023-11-21T13:10:43;36.30;;;24.98;;
40204;SDS011;26963;42.666;23.366;2023-11-21T13:13:12;35.05;;;23.38;;
40204;SDS011;26963;42.666;23.366;2023-11-21T13:15:54;34.22;;;23.35;;
40204;SDS011;26963;42.666;23.366;2023-11-21T13:18:25;38.33;;;24.75;;
40204;SDS011;26963;42.666;23.366;2023-11-21T13:20:52;35.38;;;23.63;;
40204;SDS011;26963;42.666;23.366;2023-11-21T13:23:23;32.90;;;24.58;;
40204;SDS011;26963;42.666;23.366;2023-11-21T13:25:52;40.72;;;24.88;;
40204;SDS011;26963;42.666;23.366;2023-11-21T13:28:18;34.35;;;24.23;;
40204;SDS011;26963;42.666;23.366;2023-11-21T13:30:46;38.33;;;24.70;;
40204;SDS011;26963;42.666;23.366;2023-11-21T13:33:18;33.55;;;24.25;;
40204;SDS011;26963;42.666;23.366;2023-11-21T13:35:47;34.78;;;24.40;;
40204;SDS011;26963;42.666;23.366;2023-11-21T13:38:15;38.67;;;24.95;;
40204;SDS011;26963;42.666;23.366;2023-11-21T13:40:46;37.85;;;24.58;;
40204;SDS011;26963;42.666;23.366;2023-11-21T13:43:14;40.15;;;25.77;;
40204;SDS011;26963;42.666;23.366;2023-11-21T13:45:41;35.67;;;25.05;;
40204;SDS011;26963;42.666;23.366;2023-11-21T13:48:11;33.95;;;25.52;;
40204;SDS011;26963;42.666;23.366;2023-11-21T13:50:45;39.92;;;24.92;;
40204;SDS011;26963;42.666;23.366;2023-11-21T13:53:32;36.25;;;25.30;;
40204;SDS011;26963;42.666;23.366;2023-11-21T13:55:58;36.80;;;25.33;;
40204;SDS011;26963;42.666;23.366;2023-11-21T13:58:24;34.63;;;24.45;;
40204;SDS011;26963;42.666;23.366;2023-11-21T14:01:08;34.53;;;24.38;;
40204;SDS011;26963;42.666;23.366;2023-11-21T14:03:59;34.15;;;25.02;;
40204;SDS011;26963;42.666;23.366;2023-11-21T14:06:47;36.05;;;25.15;;
40204;SDS011;26963;42.666;23.366;2023-11-21T14:09:17;34.47;;;26.08;;
40204;SDS011;26963;42.666;23.366;2023-11-21T14:11:54;39.50;;;24.45;;
40204;SDS011;26963;42.666;23.366;2023-11-21T14:14:22;29.92;;;23.38;;
40204;SDS011;26963;42.666;23.366;2023-11-21T14:16:55;37.20;;;27.08;;
40204;SDS011;26963;42.666;23.366;2023-11-21T14:19:22;38.55;;;26.65;;
40204;SDS011;26963;42.666;23.366;2023-11-21T14:21:52;42.45;;;27.50;;
40204;SDS011;26963;42.666;23.366;2023-11-21T14:24:18;38.17;;;26.63;;
40204;SDS011;26963;42.666;23.366;2023-11-21T14:26:44;36.53;;;26.65;;
40204;SDS011;26963;42.666;23.366;2023-11-21T14:29:12;37.60;;;26.05;;
40204;SDS011;26963;42.666;23.366;2023-11-21T14:31:42;42.75;;;25.65;;
40204;SDS011;26963;42.666;23.366;2023-11-21T14:34:08;39.28;;;26.40;;
40204;SDS011;26963;42.666;23.366;2023-11-21T14:36:34;33.92;;;26.05;;
40204;SDS011;26963;42.666;23.366;2023-11-21T14:39:04;38.45;;;26.58;;